sensor_id;sensor_type;location;lat;lon;timestamp;P1;durP1;ratioP1;P2;durP2;ratioP2
11283;SDS011;5698;47.332;11.180;2023-06-22T00:01:19;16.30;;;11.60;;
11283;SDS011;5698;47.332;11.180;2023-06-22T00:03:47;16.40;;;11.53;;
11283;SDS011;5698;47.332;11.180;2023-06-22T00:06:14;13.47;;;10.10;;
11283;SDS011;5698;47.332;11.180;2023-06-22T00:08:41;15.77;;;10.90;;
11283;SDS011;5698;47.332;11.180;2023-06-22T00:11:10;20.37;;;11.87;;
11283;SDS011;5698;47.332;11.180;2023-06-22T00:13:37;18.00;;;11.47;;
11283;SDS011;5698;47.332;11.180;2023-06-22T00:16:04;14.90;;;11.63;;
11283;SDS011;5698;47.332;11.180;2023-06-22T00:18:31;17.17;;;11.93;;
11283;SDS011;5698;47.332;11.180;2023-06-22T00:20:58;17.70;;;11.30;;
11283;SDS011;5698;47.332;11.180;2023-06-22T00:23:25;20.03;;;12.20;;
11283;SDS011;5698;47.332;11.180;2023-06-22T00:25:52;13.47;;;9.77;;
11283;SDS011;5698;47.332;11.180;2023-06-22T00:28:21;14.57;;;10.43;;
11283;SDS011;5698;47.332;11.180;2023-06-22T00:30:48;11.43;;;10.23;;
11283;SDS011;5698;47.332;11.180;2023-06-22T00:33:15;9.93;;;8.93;;
11283;SDS011;5698;47.332;11.180;2023-06-22T00:35:42;12.73;;;9.37;;
11283;SDS011;5698;47.332;11.180;2023-06-22T00:38:09;13.73;;;10.50;;
11283;SDS011;5698;47.332;11.180;2023-06-22T00:40:37;13.10;;;10.70;;
11283;SDS011;5698;47.332;11.180;2023-06-22T00:43:04;18.00;;;11.37;;
11283;SDS011;5698;47.332;11.180;2023-06-22T00:45:33;15.80;;;11.33;;
11283;SDS011;5698;47.332;11.180;2023-06-22T00:48:00;14.17;;;11.20;;
11283;SDS011;5698;47.332;11.180;2023-06-22T00:50:29;12.80;;;10.37;;
11283;SDS011;5698;47.332;11.180;2023-06-22T00:53:00;17.10;;;11.53;;
11283;SDS011;5698;47.332;11.180;2023-06-22T00:55:33;15.90;;;11.60;;
11283;SDS011;5698;47.332;11.180;2023-06-22T00:58:02;18.53;;;12.10;;
11283;SDS011;5698;47.332;11.180;2023-06-22T01:00:34;21.77;;;13.07;;
11283;SDS011;5698;47.332;11.180;2023-06-22T01:03:01;17.73;;;12.57;;
11283;SDS011;5698;47.332;11.180;2023-06-22T01:05:28;21.00;;;14.27;;
11283;SDS011;5698;47.332;11.180;2023-06-22T01:08:04;24.67;;;13.73;;
11283;SDS011;5698;47.332;11.180;2023-06-22T01:10:40;17.77;;;12.53;;
11283;SDS011;5698;47.332;11.180;2023-06-22T01:13:14;21.00;;;13.80;;
11283;SDS011;5698;47.332;11.180;2023-06-22T01:15:49;21.47;;;12.53;;
11283;SDS011;5698;47.332;11.180;2023-06-22T01:18:21;15.53;;;11.30;;
11283;SDS011;5698;47.332;11.180;2023-06-22T01:20:51;18.57;;;12.03;;
11283;SDS011;5698;47.332;11.180;2023-06-22T01:23:22;12.20;;;10.73;;
11283;SDS011;5698;47.332;11.180;2023-06-22T01:25:57;15.33;;;10.43;;
11283;SDS011;5698;47.332;11.180;2023-06-22T01:31:16;18.17;;;10.23;;
11283;SDS011;5698;47.332;11.180;2023-06-22T01:33:47;16.67;;;9.63;;
11283;SDS011;5698;47.332;11.180;2023-06-22T01:36:17;14.87;;;10.60;;
11283;SDS011;5698;47.332;11.180;2023-06-22T01:38:45;12.67;;;9.03;;
11283;SDS011;5698;47.332;11.180;2023-06-22T01:41:13;13.33;;;8.93;;
11283;SDS011;5698;47.332;11.180;2023-06-22T01:43:42;13.13;;;9.30;;
11283;SDS011;5698;47.332;11.180;2023-06-22T01:46:11;14.17;;;9.50;;
11283;SDS011;5698;47.332;11.180;2023-06-22T01:48:39;12.23;;;9.10;;
11283;SDS011;5698;47.332;11.180;2023-06-22T01:51:06;14.27;;;9.80;;
11283;SDS011;5698;47.332;11.180;2023-06-22T01:53:33;16.33;;;9.93;;
11283;SDS011;5698;47.332;11.180;2023-06-22T01:56:00;17.23;;;9.63;;
11283;SDS011;5698;47.332;11.180;2023-06-22T01:58:28;13.00;;;9.37;;
11283;SDS011;5698;47.332;11.180;2023-06-22T02:00:57;17.27;;;10.23;;
11283;SDS011;5698;47.332;11.180;2023-06-22T02:03:31;17.23;;;10.70;;
11283;SDS011;5698;47.332;11.180;2023-06-22T02:06:03;18.57;;;9.23;;
11283;SDS011;5698;47.332;11.180;2023-06-22T02:08:35;17.77;;;9.37;;
11283;SDS011;5698;47.332;11.180;2023-06-22T02:11:06;18.23;;;10.27;;
11283;SDS011;5698;47.332;11.180;2023-06-22T02:13:35;21.27;;;10.70;;
11283;SDS011;5698;47.332;11.180;2023-06-22T02:16:03;17.67;;;10.00;;
11283;SDS011;5698;47.332;11.180;2023-06-22T02:18:31;16.73;;;8.90;;
11283;SDS011;5698;47.332;11.180;2023-06-22T02:21:01;13.27;;;8.63;;
11283;SDS011;5698;47.332;11.180;2023-06-22T02:23:28;10.63;;;8.47;;
11283;SDS011;5698;47.332;11.180;2023-06-22T02:25:55;13.70;;;8.77;;
11283;SDS011;5698;47.332;11.180;2023-06-22T02:28:22;11.07;;;8.60;;
11283;SDS011;5698;47.332;11.180;2023-06-22T02:30:49;13.40;;;7.90;;
11283;SDS011;5698;47.332;11.180;2023-06-22T02:33:16;10.20;;;7.50;;
11283;SDS011;5698;47.332;11.180;2023-06-22T02:35:44;14.50;;;9.03;;
11283;SDS011;5698;47.332;11.180;2023-06-22T02:38:14;15.00;;;8.87;;
11283;SDS011;5698;47.332;11.180;2023-06-22T02:40:42;14.20;;;8.63;;
11283;SDS011;5698;47.332;11.180;2023-06-22T02:43:09;19.77;;;8.90;;
11283;SDS011;5698;47.332;11.180;2023-06-22T02:45:36;12.90;;;8.97;;
11283;SDS011;5698;47.332;11.180;2023-06-22T02:48:03;14.43;;;8.90;;
11283;SDS011;5698;47.332;11.180;2023-06-22T02:50:32;18.40;;;8.33;;
11283;SDS011;5698;47.332;11.180;2023-06-22T02:53:00;13.17;;;8.13;;
11283;SDS011;5698;47.332;11.180;2023-06-22T02:55:28;14.80;;;8.93;;
11283;SDS011;5698;47.332;11.180;2023-06-22T02:57:56;14.90;;;7.53;;
11283;SDS011;5698;47.332;11.180;2023-06-22T03:00:25;16.77;;;8.27;;
11283;SDS011;5698;47.332;11.180;2023-06-22T03:02:55;16.57;;;8.77;;
11283;SDS011;5698;47.332;11.180;2023-06-22T03:05:23;16.60;;;7.83;;
11283;SDS011;5698;47.332;11.180;2023-06-22T03:07:51;10.73;;;7.93;;
11283;SDS011;5698;47.332;11.180;2023-06-22T03:10:19;13.80;;;7.90;;
11283;SDS011;5698;47.332;11.180;2023-06-22T03:12:46;13.17;;;8.07;;
11283;SDS011;5698;47.332;11.180;2023-06-22T03:15:13;17.70;;;8.70;;
11283;SDS011;5698;47.332;11.180;2023-06-22T03:17:42;10.50;;;8.10;;
11283;SDS011;5698;47.332;11.180;2023-06-22T03:20:09;13.50;;;7.80;;
11283;SDS011;5698;47.332;11.180;2023-06-22T03:22:37;14.87;;;8.07;;
11283;SDS011;5698;47.332;11.180;2023-06-22T03:25:05;11.97;;;7.67;;
11283;SDS011;5698;47.332;11.180;2023-06-22T03:27:37;13.83;;;8.23;;
11283;SDS011;5698;47.332;11.180;2023-06-22T03:30:05;17.93;;;9.03;;
11283;SDS011;5698;47.332;11.180;2023-06-22T03:32:33;16.67;;;8.60;;
11283;SDS011;5698;47.332;11.180;2023-06-22T03:35:00;13.33;;;8.60;;
11283;SDS011;5698;47.332;11.180;2023-06-22T03:37:27;15.20;;;8.37;;
11283;SDS011;5698;47.332;11.180;2023-06-22T03:39:55;13.67;;;8.30;;
11283;SDS011;5698;47.332;11.180;2023-06-22T03:42:22;16.13;;;7.93;;
11283;SDS011;5698;47.332;11.180;2023-06-22T03:44:50;15.70;;;7.97;;
11283;SDS011;5698;47.332;11.180;2023-06-22T03:47:17;12.17;;;8.07;;
11283;SDS011;5698;47.332;11.180;2023-06-22T03:49:44;14.33;;;8.17;;
11283;SDS011;5698;47.332;11.180;2023-06-22T03:52:11;13.67;;;9.17;;
11283;SDS011;5698;47.332;11.180;2023-06-22T03:54:38;14.13;;;8.17;;
11283;SDS011;5698;47.332;11.180;2023-06-22T03:57:05;17.67;;;8.50;;
11283;SDS011;5698;47.332;11.180;2023-06-22T03:59:32;21.00;;;9.20;;
11283;SDS011;5698;47.332;11.180;2023-06-22T04:02:01;16.37;;;8.30;;
11283;SDS011;5698;47.332;11.180;2023-06-22T04:04:28;14.80;;;8.73;;
11283;SDS011;5698;47.332;11.180;2023-06-22T04:06:55;10.10;;;7.67;;
11283;SDS011;5698;47.332;11.180;2023-06-22T04:09:23;12.77;;;7.17;;
11283;SDS011;5698;47.332;11.180;2023-06-22T04:11:50;11.53;;;8.47;;
11283;SDS011;5698;47.332;11.180;2023-06-22T04:14:17;15.93;;;8.80;;
11283;SDS011;5698;47.332;11.180;2023-06-22T04:16:44;14.27;;;8.73;;
11283;SDS011;5698;47.332;11.180;2023-06-22T04:19:12;14.83;;;8.10;;
11283;SDS011;5698;47.332;11.180;2023-06-22T04:21:41;13.10;;;8.40;;
11283;SDS011;5698;47.332;11.180;2023-06-22T04:24:09;14.40;;;8.97;;
11283;SDS011;5698;47.332;11.180;2023-06-22T04:26:36;10.90;;;7.93;;
11283;SDS011;5698;47.332;11.180;2023-06-22T04:29:03;13.37;;;8.30;;
11283;SDS011;5698;47.332;11.180;2023-06-22T04:31:31;11.90;;;7.43;;
11283;SDS011;5698;47.332;11.180;2023-06-22T04:34:01;21.27;;;9.73;;
11283;SDS011;5698;47.332;11.180;2023-06-22T04:36:33;15.47;;;8.70;;
11283;SDS011;5698;47.332;11.180;2023-06-22T04:39:03;17.13;;;9.23;;
11283;SDS011;5698;47.332;11.180;2023-06-22T04:41:32;13.10;;;9.60;;
11283;SDS011;5698;47.332;11.180;2023-06-22T04:44:07;14.97;;;9.90;;
11283;SDS011;5698;47.332;11.180;2023-06-22T04:46:38;11.77;;;8.60;;
11283;SDS011;5698;47.332;11.180;2023-06-22T04:49:06;12.50;;;9.00;;
11283;SDS011;5698;47.332;11.180;2023-06-22T04:51:38;11.47;;;8.67;;
11283;SDS011;5698;47.332;11.180;2023-06-22T04:54:08;17.73;;;8.67;;
11283;SDS011;5698;47.332;11.180;2023-06-22T04:56:36;13.30;;;9.00;;
11283;SDS011;5698;47.332;11.180;2023-06-22T04:59:06;10.73;;;7.30;;
11283;SDS011;5698;47.332;11.180;2023-06-22T05:01:33;18.23;;;10.27;;
11283;SDS011;5698;47.332;11.180;2023-06-22T05:04:00;19.90;;;11.67;;
11283;SDS011;5698;47.332;11.180;2023-06-22T05:06:29;18.40;;;11.33;;
11283;SDS011;5698;47.332;11.180;2023-06-22T05:08:57;20.10;;;11.27;;
11283;SDS011;5698;47.332;11.180;2023-06-22T05:11:24;20.50;;;12.23;;
11283;SDS011;5698;47.332;11.180;2023-06-22T05:13:52;16.87;;;11.23;;
11283;SDS011;5698;47.332;11.180;2023-06-22T05:16:19;17.07;;;11.40;;
11283;SDS011;5698;47.332;11.180;2023-06-22T05:18:49;15.03;;;10.50;;
11283;SDS011;5698;47.332;11.180;2023-06-22T05:21:18;17.57;;;10.70;;
11283;SDS011;5698;47.332;11.180;2023-06-22T05:23:45;11.77;;;9.50;;
11283;SDS011;5698;47.332;11.180;2023-06-22T05:26:13;14.10;;;9.33;;
11283;SDS011;5698;47.332;11.180;2023-06-22T05:28:40;10.70;;;8.67;;
11283;SDS011;5698;47.332;11.180;2023-06-22T05:31:11;11.93;;;9.17;;
11283;SDS011;5698;47.332;11.180;2023-06-22T05:33:38;13.47;;;9.47;;
11283;SDS011;5698;47.332;11.180;2023-06-22T05:36:05;20.13;;;10.07;;
11283;SDS011;5698;47.332;11.180;2023-06-22T05:38:32;14.07;;;8.77;;
11283;SDS011;5698;47.332;11.180;2023-06-22T05:40:59;12.17;;;8.57;;
11283;SDS011;5698;47.332;11.180;2023-06-22T05:43:27;15.80;;;9.20;;
11283;SDS011;5698;47.332;11.180;2023-06-22T05:45:55;14.67;;;9.20;;
11283;SDS011;5698;47.332;11.180;2023-06-22T05:48:22;12.60;;;8.73;;
11283;SDS011;5698;47.332;11.180;2023-06-22T05:50:49;9.97;;;8.77;;
11283;SDS011;5698;47.332;11.180;2023-06-22T05:53:16;15.73;;;9.80;;
11283;SDS011;5698;47.332;11.180;2023-06-22T05:55:43;13.93;;;9.30;;
11283;SDS011;5698;47.332;11.180;2023-06-22T05:58:10;19.60;;;9.30;;
11283;SDS011;5698;47.332;11.180;2023-06-22T06:00:39;16.40;;;9.37;;
11283;SDS011;5698;47.332;11.180;2023-06-22T06:03:08;14.57;;;10.07;;
11283;SDS011;5698;47.332;11.180;2023-06-22T06:05:36;15.20;;;9.30;;
11283;SDS011;5698;47.332;11.180;2023-06-22T06:08:04;16.87;;;9.00;;
11283;SDS011;5698;47.332;11.180;2023-06-22T06:10:32;13.03;;;9.20;;
11283;SDS011;5698;47.332;11.180;2023-06-22T06:12:59;14.83;;;8.30;;
11283;SDS011;5698;47.332;11.180;2023-06-22T06:15:29;12.77;;;8.80;;
11283;SDS011;5698;47.332;11.180;2023-06-22T06:17:58;15.43;;;8.80;;
11283;SDS011;5698;47.332;11.180;2023-06-22T06:20:27;13.97;;;9.27;;
11283;SDS011;5698;47.332;11.180;2023-06-22T06:22:54;11.20;;;7.77;;
11283;SDS011;5698;47.332;11.180;2023-06-22T06:25:21;16.27;;;8.53;;
11283;SDS011;5698;47.332;11.180;2023-06-22T06:27:49;14.87;;;7.47;;
11283;SDS011;5698;47.332;11.180;2023-06-22T06:30:19;13.60;;;7.80;;
11283;SDS011;5698;47.332;11.180;2023-06-22T06:32:47;13.13;;;7.57;;
11283;SDS011;5698;47.332;11.180;2023-06-22T06:35:15;16.20;;;9.23;;
11283;SDS011;5698;47.332;11.180;2023-06-22T06:37:43;11.50;;;7.50;;
11283;SDS011;5698;47.332;11.180;2023-06-22T06:40:11;13.23;;;8.97;;
11283;SDS011;5698;47.332;11.180;2023-06-22T06:42:39;13.50;;;7.60;;
11283;SDS011;5698;47.332;11.180;2023-06-22T06:45:09;15.77;;;7.47;;
11283;SDS011;5698;47.332;11.180;2023-06-22T06:47:37;14.83;;;8.17;;
11283;SDS011;5698;47.332;11.180;2023-06-22T06:50:05;13.10;;;7.23;;
11283;SDS011;5698;47.332;11.180;2023-06-22T06:52:34;16.57;;;8.67;;
11283;SDS011;5698;47.332;11.180;2023-06-22T06:55:01;17.47;;;7.63;;
11283;SDS011;5698;47.332;11.180;2023-06-22T06:57:30;19.17;;;7.67;;
11283;SDS011;5698;47.332;11.180;2023-06-22T06:59:57;15.07;;;6.90;;
11283;SDS011;5698;47.332;11.180;2023-06-22T07:02:25;17.53;;;6.80;;
11283;SDS011;5698;47.332;11.180;2023-06-22T07:04:53;11.80;;;7.27;;
11283;SDS011;5698;47.332;11.180;2023-06-22T07:07:21;21.07;;;7.60;;
11283;SDS011;5698;47.332;11.180;2023-06-22T07:09:49;17.37;;;7.67;;
11283;SDS011;5698;47.332;11.180;2023-06-22T07:12:16;17.20;;;6.93;;
11283;SDS011;5698;47.332;11.180;2023-06-22T07:14:43;16.43;;;6.97;;
11283;SDS011;5698;47.332;11.180;2023-06-22T07:17:10;11.97;;;6.87;;
11283;SDS011;5698;47.332;11.180;2023-06-22T07:19:37;11.50;;;6.63;;
11283;SDS011;5698;47.332;11.180;2023-06-22T07:22:07;15.63;;;6.60;;
11283;SDS011;5698;47.332;11.180;2023-06-22T07:24:34;11.47;;;6.47;;
11283;SDS011;5698;47.332;11.180;2023-06-22T07:27:04;19.37;;;7.07;;
11283;SDS011;5698;47.332;11.180;2023-06-22T07:29:31;21.43;;;6.57;;
11283;SDS011;5698;47.332;11.180;2023-06-22T07:31:58;15.53;;;6.23;;
11283;SDS011;5698;47.332;11.180;2023-06-22T07:34:25;14.53;;;6.57;;
11283;SDS011;5698;47.332;11.180;2023-06-22T07:36:52;14.67;;;6.80;;
11283;SDS011;5698;47.332;11.180;2023-06-22T07:39:19;17.40;;;6.77;;
11283;SDS011;5698;47.332;11.180;2023-06-22T07:41:50;17.43;;;7.10;;
11283;SDS011;5698;47.332;11.180;2023-06-22T07:44:19;13.07;;;6.17;;
11283;SDS011;5698;47.332;11.180;2023-06-22T07:46:46;14.10;;;6.90;;
11283;SDS011;5698;47.332;11.180;2023-06-22T07:49:13;15.83;;;5.90;;
11283;SDS011;5698;47.332;11.180;2023-06-22T07:51:40;11.80;;;6.27;;
11283;SDS011;5698;47.332;11.180;2023-06-22T07:54:08;13.77;;;6.03;;
11283;SDS011;5698;47.332;11.180;2023-06-22T07:56:36;18.67;;;6.17;;
11283;SDS011;5698;47.332;11.180;2023-06-22T07:59:03;12.10;;;5.80;;
11283;SDS011;5698;47.332;11.180;2023-06-22T08:01:31;18.43;;;7.00;;
11283;SDS011;5698;47.332;11.180;2023-06-22T08:03:58;16.17;;;5.83;;
11283;SDS011;5698;47.332;11.180;2023-06-22T08:06:25;11.20;;;5.73;;
11283;SDS011;5698;47.332;11.180;2023-06-22T08:08:52;18.90;;;6.60;;
11283;SDS011;5698;47.332;11.180;2023-06-22T08:11:22;12.37;;;5.53;;
11283;SDS011;5698;47.332;11.180;2023-06-22T08:13:50;14.03;;;5.57;;
11283;SDS011;5698;47.332;11.180;2023-06-22T08:16:17;16.17;;;5.80;;
11283;SDS011;5698;47.332;11.180;2023-06-22T08:18:45;12.80;;;5.90;;
11283;SDS011;5698;47.332;11.180;2023-06-22T08:21:13;12.43;;;5.60;;
11283;SDS011;5698;47.332;11.180;2023-06-22T08:23:40;10.40;;;5.57;;
11283;SDS011;5698;47.332;11.180;2023-06-22T08:26:08;12.37;;;5.57;;
11283;SDS011;5698;47.332;11.180;2023-06-22T08:28:35;10.50;;;5.77;;
11283;SDS011;5698;47.332;11.180;2023-06-22T08:31:02;20.20;;;5.47;;
11283;SDS011;5698;47.332;11.180;2023-06-22T08:33:29;13.27;;;6.20;;
11283;SDS011;5698;47.332;11.180;2023-06-22T08:35:57;14.77;;;5.90;;
11283;SDS011;5698;47.332;11.180;2023-06-22T08:38:25;17.13;;;6.17;;
11283;SDS011;5698;47.332;11.180;2023-06-22T08:40:52;17.83;;;5.80;;
11283;SDS011;5698;47.332;11.180;2023-06-22T08:43:19;18.33;;;6.33;;
11283;SDS011;5698;47.332;11.180;2023-06-22T08:45:46;14.57;;;5.77;;
11283;SDS011;5698;47.332;11.180;2023-06-22T08:48:13;17.70;;;6.30;;
11283;SDS011;5698;47.332;11.180;2023-06-22T08:50:40;15.20;;;6.47;;
11283;SDS011;5698;47.332;11.180;2023-06-22T08:53:08;11.70;;;5.87;;
11283;SDS011;5698;47.332;11.180;2023-06-22T08:55:35;15.43;;;5.30;;
11283;SDS011;5698;47.332;11.180;2023-06-22T08:58:02;14.37;;;6.30;;
11283;SDS011;5698;47.332;11.180;2023-06-22T09:00:30;15.30;;;6.80;;
11283;SDS011;5698;47.332;11.180;2023-06-22T09:02:59;18.50;;;6.57;;
11283;SDS011;5698;47.332;11.180;2023-06-22T09:05:26;22.13;;;5.87;;
11283;SDS011;5698;47.332;11.180;2023-06-22T09:07:53;11.93;;;5.80;;
11283;SDS011;5698;47.332;11.180;2023-06-22T09:10:25;18.00;;;6.30;;
11283;SDS011;5698;47.332;11.180;2023-06-22T09:12:52;17.20;;;5.80;;
11283;SDS011;5698;47.332;11.180;2023-06-22T09:15:19;13.13;;;6.00;;
11283;SDS011;5698;47.332;11.180;2023-06-22T09:17:46;17.40;;;6.33;;
11283;SDS011;5698;47.332;11.180;2023-06-22T09:20:13;16.00;;;6.20;;
11283;SDS011;5698;47.332;11.180;2023-06-22T09:22:41;14.50;;;6.23;;
11283;SDS011;5698;47.332;11.180;2023-06-22T09:25:08;16.57;;;7.00;;
11283;SDS011;5698;47.332;11.180;2023-06-22T09:27:37;18.00;;;6.27;;
11283;SDS011;5698;47.332;11.180;2023-06-22T09:30:04;12.23;;;5.50;;
11283;SDS011;5698;47.332;11.180;2023-06-22T09:32:32;15.10;;;5.57;;
11283;SDS011;5698;47.332;11.180;2023-06-22T09:35:01;14.77;;;6.17;;
11283;SDS011;5698;47.332;11.180;2023-06-22T09:37:31;14.10;;;6.17;;
11283;SDS011;5698;47.332;11.180;2023-06-22T09:39:58;17.37;;;5.33;;
11283;SDS011;5698;47.332;11.180;2023-06-22T09:42:25;14.43;;;5.70;;
11283;SDS011;5698;47.332;11.180;2023-06-22T09:44:53;14.07;;;6.43;;
11283;SDS011;5698;47.332;11.180;2023-06-22T09:47:20;14.27;;;5.47;;
11283;SDS011;5698;47.332;11.180;2023-06-22T09:49:47;13.40;;;5.70;;
11283;SDS011;5698;47.332;11.180;2023-06-22T09:52:15;15.23;;;5.63;;
11283;SDS011;5698;47.332;11.180;2023-06-22T09:54:42;15.90;;;5.77;;
11283;SDS011;5698;47.332;11.180;2023-06-22T09:57:09;14.97;;;5.50;;
11283;SDS011;5698;47.332;11.180;2023-06-22T09:59:36;15.07;;;6.03;;
11283;SDS011;5698;47.332;11.180;2023-06-22T10:02:06;12.00;;;5.93;;
11283;SDS011;5698;47.332;11.180;2023-06-22T10:04:33;13.37;;;6.00;;
11283;SDS011;5698;47.332;11.180;2023-06-22T10:07:00;16.60;;;6.00;;
11283;SDS011;5698;47.332;11.180;2023-06-22T10:09:27;13.10;;;5.60;;
11283;SDS011;5698;47.332;11.180;2023-06-22T10:11:54;15.10;;;5.60;;
11283;SDS011;5698;47.332;11.180;2023-06-22T10:14:21;19.23;;;5.80;;
11283;SDS011;5698;47.332;11.180;2023-06-22T10:16:49;13.63;;;5.60;;
11283;SDS011;5698;47.332;11.180;2023-06-22T10:19:20;14.80;;;4.83;;
11283;SDS011;5698;47.332;11.180;2023-06-22T10:21:47;16.33;;;5.97;;
11283;SDS011;5698;47.332;11.180;2023-06-22T10:24:14;10.83;;;5.37;;
11283;SDS011;5698;47.332;11.180;2023-06-22T10:26:41;14.57;;;4.87;;
11283;SDS011;5698;47.332;11.180;2023-06-22T10:29:07;14.27;;;6.13;;
11283;SDS011;5698;47.332;11.180;2023-06-22T10:31:34;9.47;;;5.03;;
11283;SDS011;5698;47.332;11.180;2023-06-22T10:34:01;13.33;;;5.77;;
11283;SDS011;5698;47.332;11.180;2023-06-22T10:36:30;16.73;;;5.53;;
11283;SDS011;5698;47.332;11.180;2023-06-22T10:38:57;10.37;;;5.47;;
11283;SDS011;5698;47.332;11.180;2023-06-22T10:41:26;15.07;;;5.57;;
11283;SDS011;5698;47.332;11.180;2023-06-22T10:43:55;27.00;;;15.13;;
11283;SDS011;5698;47.332;11.180;2023-06-22T10:46:23;14.30;;;6.23;;
11283;SDS011;5698;47.332;11.180;2023-06-22T10:48:51;16.13;;;6.77;;
11283;SDS011;5698;47.332;11.180;2023-06-22T10:51:20;17.30;;;7.60;;
11283;SDS011;5698;47.332;11.180;2023-06-22T10:53:48;13.73;;;6.37;;
11283;SDS011;5698;47.332;11.180;2023-06-22T10:56:16;14.97;;;6.40;;
11283;SDS011;5698;47.332;11.180;2023-06-22T10:58:44;18.33;;;6.43;;
11283;SDS011;5698;47.332;11.180;2023-06-22T11:01:11;20.30;;;8.57;;
11283;SDS011;5698;47.332;11.180;2023-06-22T11:03:38;14.20;;;7.00;;
11283;SDS011;5698;47.332;11.180;2023-06-22T11:06:05;15.77;;;8.00;;
11283;SDS011;5698;47.332;11.180;2023-06-22T11:08:32;13.30;;;6.73;;
11283;SDS011;5698;47.332;11.180;2023-06-22T11:11:01;12.15;;;6.93;;
11283;SDS011;5698;47.332;11.180;2023-06-22T11:13:28;19.25;;;11.75;;
11283;SDS011;5698;47.332;11.180;2023-06-22T11:15:55;20.40;;;10.52;;
11283;SDS011;5698;47.332;11.180;2023-06-22T11:18:21;19.45;;;8.93;;
11283;SDS011;5698;47.332;11.180;2023-06-22T11:20:48;15.93;;;6.05;;
11283;SDS011;5698;47.332;11.180;2023-06-22T11:23:15;15.02;;;5.63;;
11283;SDS011;5698;47.332;11.180;2023-06-22T11:25:42;14.32;;;5.43;;
11283;SDS011;5698;47.332;11.180;2023-06-22T11:28:12;15.50;;;5.38;;
11283;SDS011;5698;47.332;11.180;2023-06-22T11:30:39;15.02;;;6.53;;
11283;SDS011;5698;47.332;11.180;2023-06-22T11:33:07;13.70;;;5.68;;
11283;SDS011;5698;47.332;11.180;2023-06-22T11:35:34;11.90;;;5.85;;
11283;SDS011;5698;47.332;11.180;2023-06-22T11:38:01;10.90;;;5.90;;
11283;SDS011;5698;47.332;11.180;2023-06-22T11:40:29;11.18;;;5.70;;
11283;SDS011;5698;47.332;11.180;2023-06-22T11:42:56;17.77;;;5.88;;
11283;SDS011;5698;47.332;11.180;2023-06-22T11:45:24;10.55;;;6.32;;
11283;SDS011;5698;47.332;11.180;2023-06-22T11:47:51;14.85;;;5.95;;
11283;SDS011;5698;47.332;11.180;2023-06-22T11:50:18;16.08;;;5.78;;
11283;SDS011;5698;47.332;11.180;2023-06-22T11:52:45;16.20;;;5.68;;
11283;SDS011;5698;47.332;11.180;2023-06-22T11:55:12;15.98;;;5.90;;
11283;SDS011;5698;47.332;11.180;2023-06-22T11:57:51;16.13;;;5.80;;
11283;SDS011;5698;47.332;11.180;2023-06-22T12:00:21;13.68;;;6.25;;
11283;SDS011;5698;47.332;11.180;2023-06-22T12:02:51;17.20;;;5.00;;
11283;SDS011;5698;47.332;11.180;2023-06-22T12:05:19;11.18;;;4.57;;
11283;SDS011;5698;47.332;11.180;2023-06-22T12:07:46;14.80;;;5.88;;
11283;SDS011;5698;47.332;11.180;2023-06-22T12:10:13;14.45;;;5.05;;
11283;SDS011;5698;47.332;11.180;2023-06-22T12:12:40;14.93;;;5.53;;
11283;SDS011;5698;47.332;11.180;2023-06-22T12:15:08;13.55;;;4.82;;
11283;SDS011;5698;47.332;11.180;2023-06-22T12:17:36;16.83;;;5.15;;
11283;SDS011;5698;47.332;11.180;2023-06-22T12:20:05;15.10;;;5.40;;
11283;SDS011;5698;47.332;11.180;2023-06-22T12:22:33;14.35;;;4.90;;
11283;SDS011;5698;47.332;11.180;2023-06-22T12:25:02;14.13;;;4.97;;
11283;SDS011;5698;47.332;11.180;2023-06-22T12:27:30;14.68;;;5.68;;
11283;SDS011;5698;47.332;11.180;2023-06-22T12:29:57;15.82;;;5.55;;
11283;SDS011;5698;47.332;11.180;2023-06-22T12:32:24;10.52;;;4.40;;
11283;SDS011;5698;47.332;11.180;2023-06-22T12:34:54;16.08;;;5.40;;
11283;SDS011;5698;47.332;11.180;2023-06-22T12:37:22;11.18;;;4.72;;
11283;SDS011;5698;47.332;11.180;2023-06-22T12:39:50;14.63;;;5.35;;
11283;SDS011;5698;47.332;11.180;2023-06-22T12:42:17;10.88;;;4.97;;
11283;SDS011;5698;47.332;11.180;2023-06-22T12:44:44;15.45;;;5.50;;
11283;SDS011;5698;47.332;11.180;2023-06-22T12:47:10;14.98;;;5.32;;
11283;SDS011;5698;47.332;11.180;2023-06-22T12:49:38;12.48;;;5.07;;
11283;SDS011;5698;47.332;11.180;2023-06-22T12:52:08;14.88;;;5.20;;
11283;SDS011;5698;47.332;11.180;2023-06-22T12:54:37;18.13;;;5.72;;
11283;SDS011;5698;47.332;11.180;2023-06-22T12:57:05;15.18;;;5.38;;
11283;SDS011;5698;47.332;11.180;2023-06-22T12:59:32;12.75;;;4.93;;
11283;SDS011;5698;47.332;11.180;2023-06-22T13:01:59;13.35;;;4.93;;
11283;SDS011;5698;47.332;11.180;2023-06-22T13:04:26;13.75;;;5.18;;
11283;SDS011;5698;47.332;11.180;2023-06-22T13:06:53;15.57;;;5.65;;
11283;SDS011;5698;47.332;11.180;2023-06-22T13:09:20;16.52;;;5.85;;
11283;SDS011;5698;47.332;11.180;2023-06-22T13:11:48;14.77;;;5.13;;
11283;SDS011;5698;47.332;11.180;2023-06-22T13:14:17;14.20;;;5.70;;
11283;SDS011;5698;47.332;11.180;2023-06-22T13:16:44;16.02;;;4.80;;
11283;SDS011;5698;47.332;11.180;2023-06-22T13:19:11;18.23;;;6.70;;
11283;SDS011;5698;47.332;11.180;2023-06-22T13:21:38;15.60;;;5.10;;
11283;SDS011;5698;47.332;11.180;2023-06-22T13:24:05;13.80;;;5.78;;
11283;SDS011;5698;47.332;11.180;2023-06-22T13:26:32;18.13;;;5.45;;
11283;SDS011;5698;47.332;11.180;2023-06-22T13:29:01;19.10;;;5.93;;
11283;SDS011;5698;47.332;11.180;2023-06-22T13:31:28;15.23;;;5.10;;
11283;SDS011;5698;47.332;11.180;2023-06-22T13:33:55;12.63;;;4.75;;
11283;SDS011;5698;47.332;11.180;2023-06-22T13:36:22;16.73;;;5.47;;
11283;SDS011;5698;47.332;11.180;2023-06-22T13:38:49;16.65;;;4.93;;
11283;SDS011;5698;47.332;11.180;2023-06-22T13:41:16;14.20;;;4.70;;
11283;SDS011;5698;47.332;11.180;2023-06-22T13:43:43;14.63;;;4.85;;
11283;SDS011;5698;47.332;11.180;2023-06-22T13:46:11;17.65;;;5.40;;
11283;SDS011;5698;47.332;11.180;2023-06-22T13:48:38;14.43;;;5.50;;
11283;SDS011;5698;47.332;11.180;2023-06-22T13:51:05;14.75;;;5.15;;
11283;SDS011;5698;47.332;11.180;2023-06-22T13:53:32;18.83;;;4.63;;
11283;SDS011;5698;47.332;11.180;2023-06-22T13:55:59;19.85;;;5.22;;
11283;SDS011;5698;47.332;11.180;2023-06-22T13:58:26;13.80;;;4.90;;
11283;SDS011;5698;47.332;11.180;2023-06-22T14:00:53;14.85;;;4.50;;
11283;SDS011;5698;47.332;11.180;2023-06-22T14:03:22;13.75;;;4.82;;
11283;SDS011;5698;47.332;11.180;2023-06-22T14:05:49;12.43;;;4.72;;
11283;SDS011;5698;47.332;11.180;2023-06-22T14:08:19;18.48;;;5.38;;
11283;SDS011;5698;47.332;11.180;2023-06-22T14:10:48;13.52;;;5.15;;
11283;SDS011;5698;47.332;11.180;2023-06-22T14:13:15;20.42;;;5.07;;
11283;SDS011;5698;47.332;11.180;2023-06-22T14:15:42;16.15;;;4.90;;
11283;SDS011;5698;47.332;11.180;2023-06-22T14:18:09;11.02;;;4.38;;
11283;SDS011;5698;47.332;11.180;2023-06-22T14:20:38;13.68;;;4.57;;
11283;SDS011;5698;47.332;11.180;2023-06-22T14:23:05;18.83;;;5.25;;
11283;SDS011;5698;47.332;11.180;2023-06-22T14:25:32;15.95;;;4.75;;
11283;SDS011;5698;47.332;11.180;2023-06-22T14:27:59;15.65;;;6.13;;
11283;SDS011;5698;47.332;11.180;2023-06-22T14:30:26;15.48;;;4.60;;
11283;SDS011;5698;47.332;11.180;2023-06-22T14:32:53;16.95;;;4.88;;
11283;SDS011;5698;47.332;11.180;2023-06-22T14:35:20;17.77;;;4.97;;
11283;SDS011;5698;47.332;11.180;2023-06-22T14:37:48;20.17;;;5.20;;
11283;SDS011;5698;47.332;11.180;2023-06-22T14:40:15;16.20;;;5.13;;